sensor_id;sensor_type;location;lat;lon;timestamp;P1;durP1;ratioP1;P2;durP2;ratioP2
52984;SDS011;40499;47.830;19.026;2022-10-16T00:01:08;16.98;;;8.27;;
52984;SDS011;40499;47.830;19.026;2022-10-16T00:03:38;13.07;;;7.70;;
52984;SDS011;40499;47.830;19.026;2022-10-16T00:06:04;14.63;;;7.35;;
52984;SDS011;40499;47.830;19.026;2022-10-16T00:08:31;14.27;;;7.78;;
52984;SDS011;40499;47.830;19.026;2022-10-16T00:11:01;15.18;;;7.68;;
52984;SDS011;40499;47.830;19.026;2022-10-16T00:13:31;15.90;;;7.80;;
52984;SDS011;40499;47.830;19.026;2022-10-16T00:15:58;14.70;;;7.80;;
52984;SDS011;40499;47.830;19.026;2022-10-16T00:18:25;14.63;;;7.53;;
52984;SDS011;40499;47.830;19.026;2022-10-16T00:20:51;10.43;;;7.47;;
52984;SDS011;40499;47.830;19.026;2022-10-16T00:23:18;17.70;;;6.47;;
52984;SDS011;40499;47.830;19.026;2022-10-16T00:25:44;12.30;;;7.15;;
52984;SDS011;40499;47.830;19.026;2022-10-16T00:28:09;12.77;;;6.60;;
52984;SDS011;40499;47.830;19.026;2022-10-16T00:30:37;10.75;;;6.40;;
52984;SDS011;40499;47.830;19.026;2022-10-16T00:33:03;11.05;;;6.30;;
52984;SDS011;40499;47.830;19.026;2022-10-16T00:35:30;12.50;;;6.50;;
52984;SDS011;40499;47.830;19.026;2022-10-16T00:37:55;15.52;;;6.47;;
52984;SDS011;40499;47.830;19.026;2022-10-16T00:40:21;13.90;;;6.13;;
52984;SDS011;40499;47.830;19.026;2022-10-16T00:42:46;12.95;;;6.53;;
52984;SDS011;40499;47.830;19.026;2022-10-16T00:45:11;16.42;;;6.32;;
52984;SDS011;40499;47.830;19.026;2022-10-16T00:47:38;10.35;;;5.68;;
52984;SDS011;40499;47.830;19.026;2022-10-16T00:50:07;11.05;;;5.47;;
52984;SDS011;40499;47.830;19.026;2022-10-16T00:52:36;15.18;;;5.85;;
52984;SDS011;40499;47.830;19.026;2022-10-16T00:55:07;13.63;;;5.22;;
52984;SDS011;40499;47.830;19.026;2022-10-16T00:57:34;12.32;;;5.55;;
52984;SDS011;40499;47.830;19.026;2022-10-16T00:59:59;11.48;;;5.63;;
52984;SDS011;40499;47.830;19.026;2022-10-16T01:02:25;9.20;;;5.00;;
52984;SDS011;40499;47.830;19.026;2022-10-16T01:04:51;12.63;;;5.38;;
52984;SDS011;40499;47.830;19.026;2022-10-16T01:10:10;9.45;;;5.57;;
52984;SDS011;40499;47.830;19.026;2022-10-16T01:15:20;12.07;;;5.72;;
52984;SDS011;40499;47.830;19.026;2022-10-16T01:18:00;11.13;;;5.97;;
52984;SDS011;40499;47.830;19.026;2022-10-16T01:20:44;9.05;;;5.20;;
52984;SDS011;40499;47.830;19.026;2022-10-16T01:26:16;16.20;;;5.50;;
52984;SDS011;40499;47.830;19.026;2022-10-16T01:29:01;12.32;;;5.72;;
52984;SDS011;40499;47.830;19.026;2022-10-16T01:31:34;13.23;;;5.50;;
52984;SDS011;40499;47.830;19.026;2022-10-16T01:34:14;12.60;;;5.15;;
52984;SDS011;40499;47.830;19.026;2022-10-16T01:36:49;10.32;;;5.45;;
52984;SDS011;40499;47.830;19.026;2022-10-16T01:39:20;10.32;;;4.97;;
52984;SDS011;40499;47.830;19.026;2022-10-16T01:41:51;10.70;;;5.30;;
52984;SDS011;40499;47.830;19.026;2022-10-16T01:44:25;11.50;;;5.53;;
52984;SDS011;40499;47.830;19.026;2022-10-16T01:46:54;12.20;;;5.50;;
52984;SDS011;40499;47.830;19.026;2022-10-16T01:49:20;7.85;;;4.82;;
52984;SDS011;40499;47.830;19.026;2022-10-16T01:51:51;10.68;;;5.57;;
52984;SDS011;40499;47.830;19.026;2022-10-16T01:54:20;11.77;;;5.45;;
52984;SDS011;40499;47.830;19.026;2022-10-16T01:56:50;11.95;;;6.18;;
52984;SDS011;40499;47.830;19.026;2022-10-16T01:59:17;10.63;;;5.05;;
52984;SDS011;40499;47.830;19.026;2022-10-16T02:01:49;10.10;;;5.53;;
52984;SDS011;40499;47.830;19.026;2022-10-16T02:04:28;7.68;;;4.85;;
52984;SDS011;40499;47.830;19.026;2022-10-16T02:06:56;13.15;;;5.80;;
52984;SDS011;40499;47.830;19.026;2022-10-16T02:09:22;11.43;;;5.93;;
52984;SDS011;40499;47.830;19.026;2022-10-16T02:11:47;15.20;;;6.60;;
52984;SDS011;40499;47.830;19.026;2022-10-16T02:14:16;12.80;;;5.45;;
52984;SDS011;40499;47.830;19.026;2022-10-16T02:16:42;12.93;;;5.80;;
52984;SDS011;40499;47.830;19.026;2022-10-16T02:19:10;10.23;;;5.55;;
52984;SDS011;40499;47.830;19.026;2022-10-16T02:21:48;9.93;;;5.03;;
52984;SDS011;40499;47.830;19.026;2022-10-16T02:26:49;10.13;;;5.43;;
52984;SDS011;40499;47.830;19.026;2022-10-16T02:29:22;13.60;;;6.03;;
52984;SDS011;40499;47.830;19.026;2022-10-16T02:31:50;13.75;;;5.13;;
52984;SDS011;40499;47.830;19.026;2022-10-16T02:34:24;13.68;;;5.38;;
52984;SDS011;40499;47.830;19.026;2022-10-16T02:36:51;15.55;;;5.75;;
52984;SDS011;40499;47.830;19.026;2022-10-16T02:39:17;8.35;;;5.00;;
52984;SDS011;40499;47.830;19.026;2022-10-16T02:41:45;8.13;;;4.72;;
52984;SDS011;40499;47.830;19.026;2022-10-16T02:44:10;8.02;;;5.10;;
52984;SDS011;40499;47.830;19.026;2022-10-16T02:46:35;11.02;;;5.43;;
52984;SDS011;40499;47.830;19.026;2022-10-16T02:49:01;10.50;;;5.28;;
52984;SDS011;40499;47.830;19.026;2022-10-16T02:51:26;11.68;;;5.35;;
52984;SDS011;40499;47.830;19.026;2022-10-16T02:53:51;8.38;;;5.20;;
52984;SDS011;40499;47.830;19.026;2022-10-16T02:56:17;10.07;;;5.53;;
52984;SDS011;40499;47.830;19.026;2022-10-16T02:58:42;10.40;;;4.70;;
52984;SDS011;40499;47.830;19.026;2022-10-16T03:01:07;9.07;;;5.32;;
52984;SDS011;40499;47.830;19.026;2022-10-16T03:03:33;8.52;;;4.88;;
52984;SDS011;40499;47.830;19.026;2022-10-16T03:05:58;8.13;;;4.75;;
52984;SDS011;40499;47.830;19.026;2022-10-16T03:08:24;9.27;;;5.63;;
52984;SDS011;40499;47.830;19.026;2022-10-16T03:10:50;9.68;;;5.72;;
52984;SDS011;40499;47.830;19.026;2022-10-16T03:13:16;10.27;;;5.70;;
52984;SDS011;40499;47.830;19.026;2022-10-16T03:15:42;14.38;;;5.78;;
52984;SDS011;40499;47.830;19.026;2022-10-16T03:18:07;8.73;;;5.68;;
52984;SDS011;40499;47.830;19.026;2022-10-16T03:20:32;9.63;;;5.38;;
52984;SDS011;40499;47.830;19.026;2022-10-16T03:22:58;10.13;;;5.85;;
52984;SDS011;40499;47.830;19.026;2022-10-16T03:25:23;8.57;;;5.35;;
52984;SDS011;40499;47.830;19.026;2022-10-16T03:27:49;10.77;;;5.60;;
52984;SDS011;40499;47.830;19.026;2022-10-16T03:30:14;11.32;;;5.80;;
52984;SDS011;40499;47.830;19.026;2022-10-16T03:32:41;7.55;;;5.05;;
52984;SDS011;40499;47.830;19.026;2022-10-16T03:35:07;11.35;;;5.53;;
52984;SDS011;40499;47.830;19.026;2022-10-16T03:37:32;9.07;;;5.70;;
52984;SDS011;40499;47.830;19.026;2022-10-16T03:39:58;10.13;;;5.25;;
52984;SDS011;40499;47.830;19.026;2022-10-16T03:42:24;10.75;;;5.45;;
52984;SDS011;40499;47.830;19.026;2022-10-16T03:44:49;9.27;;;6.20;;
52984;SDS011;40499;47.830;19.026;2022-10-16T03:47:14;13.00;;;5.85;;
52984;SDS011;40499;47.830;19.026;2022-10-16T03:49:40;11.38;;;6.47;;
52984;SDS011;40499;47.830;19.026;2022-10-16T03:52:05;12.82;;;6.13;;
52984;SDS011;40499;47.830;19.026;2022-10-16T03:54:31;10.38;;;6.25;;
52984;SDS011;40499;47.830;19.026;2022-10-16T03:56:56;14.57;;;6.82;;
52984;SDS011;40499;47.830;19.026;2022-10-16T03:59:21;13.07;;;5.88;;
52984;SDS011;40499;47.830;19.026;2022-10-16T04:01:47;13.35;;;5.88;;
52984;SDS011;40499;47.830;19.026;2022-10-16T04:04:12;8.43;;;5.80;;
52984;SDS011;40499;47.830;19.026;2022-10-16T04:06:38;15.30;;;5.88;;
52984;SDS011;40499;47.830;19.026;2022-10-16T04:09:03;8.68;;;5.53;;
52984;SDS011;40499;47.830;19.026;2022-10-16T04:11:28;11.73;;;6.55;;
52984;SDS011;40499;47.830;19.026;2022-10-16T04:13:54;13.70;;;6.57;;
52984;SDS011;40499;47.830;19.026;2022-10-16T04:16:19;13.98;;;6.63;;
52984;SDS011;40499;47.830;19.026;2022-10-16T04:18:45;12.68;;;7.18;;
52984;SDS011;40499;47.830;19.026;2022-10-16T04:21:10;13.43;;;6.60;;
52984;SDS011;40499;47.830;19.026;2022-10-16T04:23:35;16.45;;;7.57;;
52984;SDS011;40499;47.830;19.026;2022-10-16T04:26:01;11.35;;;7.22;;
52984;SDS011;40499;47.830;19.026;2022-10-16T04:28:26;13.05;;;7.15;;
52984;SDS011;40499;47.830;19.026;2022-10-16T04:30:52;13.13;;;6.72;;
52984;SDS011;40499;47.830;19.026;2022-10-16T04:33:17;9.32;;;6.30;;
52984;SDS011;40499;47.830;19.026;2022-10-16T04:35:43;12.82;;;6.70;;
52984;SDS011;40499;47.830;19.026;2022-10-16T04:38:08;12.25;;;6.80;;
52984;SDS011;40499;47.830;19.026;2022-10-16T04:40:34;10.65;;;6.13;;
52984;SDS011;40499;47.830;19.026;2022-10-16T04:43:01;11.88;;;6.88;;
52984;SDS011;40499;47.830;19.026;2022-10-16T04:45:27;12.18;;;7.00;;
52984;SDS011;40499;47.830;19.026;2022-10-16T04:47:56;14.40;;;6.47;;
52984;SDS011;40499;47.830;19.026;2022-10-16T04:50:22;9.60;;;6.30;;
52984;SDS011;40499;47.830;19.026;2022-10-16T04:52:47;13.75;;;6.93;;
52984;SDS011;40499;47.830;19.026;2022-10-16T04:55:12;11.00;;;5.97;;
52984;SDS011;40499;47.830;19.026;2022-10-16T04:57:38;12.57;;;6.45;;
52984;SDS011;40499;47.830;19.026;2022-10-16T05:00:03;9.98;;;6.20;;
52984;SDS011;40499;47.830;19.026;2022-10-16T05:02:29;11.38;;;7.03;;
52984;SDS011;40499;47.830;19.026;2022-10-16T05:04:54;12.57;;;6.72;;
52984;SDS011;40499;47.830;19.026;2022-10-16T05:07:20;12.23;;;6.60;;
52984;SDS011;40499;47.830;19.026;2022-10-16T05:09:45;12.45;;;7.35;;
52984;SDS011;40499;47.830;19.026;2022-10-16T05:12:11;13.75;;;6.72;;
52984;SDS011;40499;47.830;19.026;2022-10-16T05:14:36;9.63;;;6.80;;
52984;SDS011;40499;47.830;19.026;2022-10-16T05:17:02;11.18;;;6.75;;
52984;SDS011;40499;47.830;19.026;2022-10-16T05:19:27;12.48;;;7.07;;
52984;SDS011;40499;47.830;19.026;2022-10-16T05:21:52;11.65;;;6.75;;
52984;SDS011;40499;47.830;19.026;2022-10-16T05:24:18;12.85;;;6.80;;
52984;SDS011;40499;47.830;19.026;2022-10-16T05:26:43;14.48;;;8.38;;
52984;SDS011;40499;47.830;19.026;2022-10-16T05:29:08;13.45;;;8.70;;
52984;SDS011;40499;47.830;19.026;2022-10-16T05:31:34;14.57;;;8.40;;
52984;SDS011;40499;47.830;19.026;2022-10-16T05:34:00;15.32;;;8.55;;
52984;SDS011;40499;47.830;19.026;2022-10-16T05:36:26;13.10;;;9.00;;
52984;SDS011;40499;47.830;19.026;2022-10-16T05:38:52;15.52;;;9.25;;
52984;SDS011;40499;47.830;19.026;2022-10-16T05:41:18;12.65;;;8.40;;
52984;SDS011;40499;47.830;19.026;2022-10-16T05:43:48;13.05;;;8.40;;
52984;SDS011;40499;47.830;19.026;2022-10-16T05:46:14;13.45;;;9.13;;
52984;SDS011;40499;47.830;19.026;2022-10-16T05:48:40;15.00;;;8.13;;
52984;SDS011;40499;47.830;19.026;2022-10-16T05:51:06;10.95;;;8.13;;
52984;SDS011;40499;47.830;19.026;2022-10-16T05:53:33;16.17;;;8.32;;
52984;SDS011;40499;47.830;19.026;2022-10-16T05:56:00;15.25;;;9.18;;
52984;SDS011;40499;47.830;19.026;2022-10-16T05:58:28;21.25;;;9.18;;
52984;SDS011;40499;47.830;19.026;2022-10-16T06:01:01;14.00;;;8.25;;
52984;SDS011;40499;47.830;19.026;2022-10-16T06:03:32;14.52;;;8.70;;
52984;SDS011;40499;47.830;19.026;2022-10-16T06:05:58;12.43;;;7.65;;
52984;SDS011;40499;47.830;19.026;2022-10-16T06:08:23;13.82;;;9.45;;
52984;SDS011;40499;47.830;19.026;2022-10-16T06:10:49;16.15;;;9.57;;
52984;SDS011;40499;47.830;19.026;2022-10-16T06:13:25;18.27;;;9.73;;
52984;SDS011;40499;47.830;19.026;2022-10-16T06:15:51;13.75;;;8.52;;
52984;SDS011;40499;47.830;19.026;2022-10-16T06:18:16;13.70;;;9.43;;
52984;SDS011;40499;47.830;19.026;2022-10-16T06:20:42;18.95;;;10.68;;
52984;SDS011;40499;47.830;19.026;2022-10-16T06:23:07;16.50;;;9.90;;
52984;SDS011;40499;47.830;19.026;2022-10-16T06:25:32;16.38;;;9.73;;
52984;SDS011;40499;47.830;19.026;2022-10-16T06:27:58;22.85;;;9.85;;
52984;SDS011;40499;47.830;19.026;2022-10-16T06:30:24;15.00;;;8.93;;
52984;SDS011;40499;47.830;19.026;2022-10-16T06:32:49;16.05;;;9.40;;
52984;SDS011;40499;47.830;19.026;2022-10-16T06:35:15;15.98;;;9.95;;
52984;SDS011;40499;47.830;19.026;2022-10-16T06:40:49;16.48;;;9.25;;
52984;SDS011;40499;47.830;19.026;2022-10-16T06:43:14;19.95;;;9.52;;
52984;SDS011;40499;47.830;19.026;2022-10-16T06:45:40;13.95;;;7.90;;
52984;SDS011;40499;47.830;19.026;2022-10-16T06:48:05;15.10;;;8.32;;
52984;SDS011;40499;47.830;19.026;2022-10-16T06:50:30;18.98;;;9.25;;
52984;SDS011;40499;47.830;19.026;2022-10-16T06:52:56;16.63;;;8.95;;
52984;SDS011;40499;47.830;19.026;2022-10-16T06:55:21;15.68;;;9.02;;
52984;SDS011;40499;47.830;19.026;2022-10-16T06:57:47;13.13;;;8.23;;
52984;SDS011;40499;47.830;19.026;2022-10-16T07:00:13;15.35;;;8.57;;
52984;SDS011;40499;47.830;19.026;2022-10-16T07:02:39;17.75;;;8.27;;
52984;SDS011;40499;47.830;19.026;2022-10-16T07:05:04;15.50;;;9.20;;
52984;SDS011;40499;47.830;19.026;2022-10-16T07:07:30;15.50;;;9.65;;
52984;SDS011;40499;47.830;19.026;2022-10-16T07:09:55;17.33;;;8.18;;
52984;SDS011;40499;47.830;19.026;2022-10-16T07:12:20;25.13;;;9.65;;
52984;SDS011;40499;47.830;19.026;2022-10-16T07:14:46;12.68;;;8.07;;
52984;SDS011;40499;47.830;19.026;2022-10-16T07:17:11;14.38;;;7.53;;
52984;SDS011;40499;47.830;19.026;2022-10-16T07:19:36;12.55;;;6.18;;
52984;SDS011;40499;47.830;19.026;2022-10-16T07:22:25;10.55;;;5.85;;
52984;SDS011;40499;47.830;19.026;2022-10-16T07:24:50;9.48;;;5.85;;
52984;SDS011;40499;47.830;19.026;2022-10-16T07:27:16;12.48;;;6.55;;
52984;SDS011;40499;47.830;19.026;2022-10-16T07:29:42;10.57;;;6.38;;
52984;SDS011;40499;47.830;19.026;2022-10-16T07:32:07;14.90;;;6.93;;
52984;SDS011;40499;47.830;19.026;2022-10-16T07:34:32;10.75;;;5.88;;
52984;SDS011;40499;47.830;19.026;2022-10-16T07:36:58;11.43;;;6.05;;
52984;SDS011;40499;47.830;19.026;2022-10-16T07:39:23;8.32;;;5.43;;
52984;SDS011;40499;47.830;19.026;2022-10-16T07:41:49;17.88;;;6.97;;
52984;SDS011;40499;47.830;19.026;2022-10-16T07:44:15;11.52;;;6.22;;
52984;SDS011;40499;47.830;19.026;2022-10-16T07:46:41;8.93;;;5.20;;
52984;SDS011;40499;47.830;19.026;2022-10-16T07:49:06;9.60;;;5.43;;
52984;SDS011;40499;47.830;19.026;2022-10-16T07:51:32;13.80;;;5.68;;
52984;SDS011;40499;47.830;19.026;2022-10-16T07:53:57;12.90;;;5.28;;
52984;SDS011;40499;47.830;19.026;2022-10-16T07:56:23;10.13;;;5.63;;
52984;SDS011;40499;47.830;19.026;2022-10-16T07:58:49;10.43;;;5.45;;
52984;SDS011;40499;47.830;19.026;2022-10-16T08:01:15;10.82;;;5.70;;
52984;SDS011;40499;47.830;19.026;2022-10-16T08:03:44;8.45;;;5.75;;
52984;SDS011;40499;47.830;19.026;2022-10-16T08:06:10;12.77;;;5.38;;
52984;SDS011;40499;47.830;19.026;2022-10-16T08:08:35;17.17;;;5.68;;
52984;SDS011;40499;47.830;19.026;2022-10-16T08:11:01;8.82;;;4.88;;
52984;SDS011;40499;47.830;19.026;2022-10-16T08:13:30;13.18;;;5.50;;
52984;SDS011;40499;47.830;19.026;2022-10-16T08:15:57;11.32;;;5.50;;
52984;SDS011;40499;47.830;19.026;2022-10-16T08:18:23;10.50;;;4.93;;
52984;SDS011;40499;47.830;19.026;2022-10-16T08:20:54;14.02;;;5.78;;
52984;SDS011;40499;47.830;19.026;2022-10-16T08:23:20;17.27;;;7.53;;
52984;SDS011;40499;47.830;19.026;2022-10-16T08:25:46;13.15;;;5.97;;
52984;SDS011;40499;47.830;19.026;2022-10-16T08:28:11;10.85;;;5.65;;
52984;SDS011;40499;47.830;19.026;2022-10-16T08:30:37;11.80;;;6.25;;
52984;SDS011;40499;47.830;19.026;2022-10-16T08:33:03;11.90;;;6.38;;
52984;SDS011;40499;47.830;19.026;2022-10-16T08:35:28;12.20;;;5.82;;
52984;SDS011;40499;47.830;19.026;2022-10-16T08:37:54;12.95;;;5.50;;
52984;SDS011;40499;47.830;19.026;2022-10-16T08:40:20;13.80;;;6.25;;
52984;SDS011;40499;47.830;19.026;2022-10-16T08:48:46;9.05;;;5.32;;
52984;SDS011;40499;47.830;19.026;2022-10-16T08:51:35;8.57;;;4.80;;
52984;SDS011;40499;47.830;19.026;2022-10-16T08:54:47;9.70;;;5.70;;
52984;SDS011;40499;47.830;19.026;2022-10-16T08:57:17;10.98;;;5.25;;
52984;SDS011;40499;47.830;19.026;2022-10-16T08:59:45;13.30;;;5.45;;
52984;SDS011;40499;47.830;19.026;2022-10-16T09:05:00;10.77;;;4.85;;
52984;SDS011;40499;47.830;19.026;2022-10-16T09:07:39;9.10;;;5.03;;
52984;SDS011;40499;47.830;19.026;2022-10-16T09:10:15;11.25;;;5.18;;
52984;SDS011;40499;47.830;19.026;2022-10-16T09:12:50;8.30;;;5.05;;
52984;SDS011;40499;47.830;19.026;2022-10-16T09:15:31;11.52;;;5.50;;
52984;SDS011;40499;47.830;19.026;2022-10-16T09:18:04;12.77;;;4.88;;
52984;SDS011;40499;47.830;19.026;2022-10-16T09:21:01;11.35;;;5.07;;
52984;SDS011;40499;47.830;19.026;2022-10-16T09:23:33;11.55;;;5.05;;
52984;SDS011;40499;47.830;19.026;2022-10-16T09:26:01;8.75;;;5.43;;
52984;SDS011;40499;47.830;19.026;2022-10-16T09:28:28;10.35;;;5.20;;
52984;SDS011;40499;47.830;19.026;2022-10-16T09:30:53;10.25;;;5.68;;
52984;SDS011;40499;47.830;19.026;2022-10-16T09:33:20;8.80;;;5.60;;
52984;SDS011;40499;47.830;19.026;2022-10-16T09:35:53;13.20;;;5.82;;
52984;SDS011;40499;47.830;19.026;2022-10-16T09:40:49;12.65;;;5.65;;
52984;SDS011;40499;47.830;19.026;2022-10-16T09:45:52;11.55;;;5.50;;
52984;SDS011;40499;47.830;19.026;2022-10-16T09:48:20;11.30;;;5.00;;
52984;SDS011;40499;47.830;19.026;2022-10-16T09:50:54;9.57;;;5.03;;
52984;SDS011;40499;47.830;19.026;2022-10-16T09:53:40;11.82;;;5.90;;
52984;SDS011;40499;47.830;19.026;2022-10-16T09:56:09;9.48;;;5.63;;
52984;SDS011;40499;47.830;19.026;2022-10-16T09:58:51;10.27;;;5.68;;
52984;SDS011;40499;47.830;19.026;2022-10-16T10:01:18;9.38;;;5.05;;
52984;SDS011;40499;47.830;19.026;2022-10-16T10:03:45;9.98;;;5.10;;
52984;SDS011;40499;47.830;19.026;2022-10-16T10:08:52;11.07;;;5.30;;
52984;SDS011;40499;47.830;19.026;2022-10-16T10:14:27;8.00;;;5.00;;
52984;SDS011;40499;47.830;19.026;2022-10-16T10:17:12;11.23;;;5.15;;
52984;SDS011;40499;47.830;19.026;2022-10-16T10:19:54;8.27;;;4.60;;
52984;SDS011;40499;47.830;19.026;2022-10-16T10:22:42;10.68;;;4.95;;
52984;SDS011;40499;47.830;19.026;2022-10-16T10:45:16;7.40;;;4.20;;
52984;SDS011;40499;47.830;19.026;2022-10-16T11:06:42;10.98;;;4.50;;
52984;SDS011;40499;47.830;19.026;2022-10-16T11:11:50;8.80;;;4.22;;
52984;SDS011;40499;47.830;19.026;2022-10-16T11:14:21;9.48;;;3.95;;
52984;SDS011;40499;47.830;19.026;2022-10-16T11:21:54;8.68;;;4.32;;
52984;SDS011;40499;47.830;19.026;2022-10-16T11:27:12;8.00;;;4.00;;
52984;SDS011;40499;47.830;19.026;2022-10-16T11:29:47;6.80;;;3.70;;
52984;SDS011;40499;47.830;19.026;2022-10-16T11:32:24;6.57;;;4.40;;
52984;SDS011;40499;47.830;19.026;2022-10-16T11:34:57;7.30;;;4.47;;
52984;SDS011;40499;47.830;19.026;2022-10-16T11:37:32;7.47;;;3.83;;
52984;SDS011;40499;47.830;19.026;2022-10-16T11:40:05;7.13;;;4.35;;
52984;SDS011;40499;47.830;19.026;2022-10-16T11:42:46;8.93;;;4.55;;
52984;SDS011;40499;47.830;19.026;2022-10-16T11:45:36;7.32;;;4.18;;
52984;SDS011;40499;47.830;19.026;2022-10-16T11:50:57;7.57;;;4.05;;
52984;SDS011;40499;47.830;19.026;2022-10-16T11:56:13;6.80;;;3.60;;
52984;SDS011;40499;47.830;19.026;2022-10-16T12:01:43;8.88;;;3.45;;
52984;SDS011;40499;47.830;19.026;2022-10-16T12:07:03;8.05;;;3.53;;
52984;SDS011;40499;47.830;19.026;2022-10-16T12:09:34;4.82;;;3.28;;
52984;SDS011;40499;47.830;19.026;2022-10-16T12:12:02;8.40;;;3.60;;
52984;SDS011;40499;47.830;19.026;2022-10-16T12:14:35;7.82;;;3.47;;
52984;SDS011;40499;47.830;19.026;2022-10-16T12:17:04;8.93;;;3.35;;
52984;SDS011;40499;47.830;19.026;2022-10-16T12:19:59;5.90;;;3.25;;
52984;SDS011;40499;47.830;19.026;2022-10-16T12:22:37;6.72;;;3.42;;
52984;SDS011;40499;47.830;19.026;2022-10-16T12:25:53;7.75;;;3.85;;
52984;SDS011;40499;47.830;19.026;2022-10-16T12:30:40;6.75;;;3.42;;
52984;SDS011;40499;47.830;19.026;2022-10-16T12:33:19;6.15;;;3.35;;
52984;SDS011;40499;47.830;19.026;2022-10-16T12:35:56;5.60;;;3.50;;
52984;SDS011;40499;47.830;19.026;2022-10-16T12:38:25;7.88;;;3.35;;
52984;SDS011;40499;47.830;19.026;2022-10-16T12:41:04;7.22;;;3.22;;
52984;SDS011;40499;47.830;19.026;2022-10-16T12:43:37;6.63;;;3.08;;
52984;SDS011;40499;47.830;19.026;2022-10-16T12:48:37;10.13;;;3.45;;
52984;SDS011;40499;47.830;19.026;2022-10-16T12:53:36;8.35;;;2.95;;
52984;SDS011;40499;47.830;19.026;2022-10-16T13:01:10;6.18;;;2.65;;
52984;SDS011;40499;47.830;19.026;2022-10-16T13:06:38;5.22;;;2.63;;
52984;SDS011;40499;47.830;19.026;2022-10-16T13:09:15;7.18;;;2.60;;
52984;SDS011;40499;47.830;19.026;2022-10-16T13:17:16;6.18;;;2.42;;
52984;SDS011;40499;47.830;19.026;2022-10-16T13:20:23;7.35;;;2.75;;
52984;SDS011;40499;47.830;19.026;2022-10-16T13:23:02;6.22;;;2.70;;
52984;SDS011;40499;47.830;19.026;2022-10-16T13:25:33;5.47;;;2.53;;
52984;SDS011;40499;47.830;19.026;2022-10-16T13:28:19;5.65;;;2.70;;
52984;SDS011;40499;47.830;19.026;2022-10-16T13:30:52;7.53;;;3.05;;
52984;SDS011;40499;47.830;19.026;2022-10-16T13:36:17;4.25;;;2.50;;
52984;SDS011;40499;47.830;19.026;2022-10-16T13:38:45;7.32;;;3.05;;
52984;SDS011;40499;47.830;19.026;2022-10-16T13:41:14;5.97;;;3.10;;
52984;SDS011;40499;47.830;19.026;2022-10-16T13:44:00;6.00;;;3.17;;
52984;SDS011;40499;47.830;19.026;2022-10-16T13:46:25;6.65;;;2.95;;
52984;SDS011;40499;47.830;19.026;2022-10-16T13:51:30;5.57;;;2.47;;
52984;SDS011;40499;47.830;19.026;2022-10-16T13:53:57;5.25;;;2.63;;
52984;SDS011;40499;47.830;19.026;2022-10-16T13:56:27;6.40;;;2.80;;
52984;SDS011;40499;47.830;19.026;2022-10-16T13:59:02;3.85;;;2.53;;
52984;SDS011;40499;47.830;19.026;2022-10-16T14:01:33;6.05;;;3.22;;
52984;SDS011;40499;47.830;19.026;2022-10-16T14:04:08;6.53;;;3.25;;
52984;SDS011;40499;47.830;19.026;2022-10-16T14:06:40;3.10;;;2.30;;
52984;SDS011;40499;47.830;19.026;2022-10-16T14:12:02;6.40;;;2.40;;
52984;SDS011;40499;47.830;19.026;2022-10-16T14:14:46;7.78;;;2.85;;
52984;SDS011;40499;47.830;19.026;2022-10-16T14:17:14;7.38;;;3.17;;
52984;SDS011;40499;47.830;19.026;2022-10-16T14:19:44;7.30;;;3.22;;
52984;SDS011;40499;47.830;19.026;2022-10-16T14:25:01;8.65;;;3.58;;
52984;SDS011;40499;47.830;19.026;2022-10-16T14:28:00;8.15;;;3.55;;
52984;SDS011;40499;47.830;19.026;2022-10-16T14:30:26;6.07;;;3.28;;
52984;SDS011;40499;47.830;19.026;2022-10-16T14:32:57;5.20;;;2.92;;
52984;SDS011;40499;47.830;19.026;2022-10-16T14:35:34;6.20;;;3.13;;
52984;SDS011;40499;47.830;19.026;2022-10-16T14:38:02;8.07;;;3.47;;
52984;SDS011;40499;47.830;19.026;2022-10-16T14:40:30;9.43;;;4.60;;
52984;SDS011;40499;47.830;19.026;2022-10-16T14:42:58;7.38;;;3.72;;
52984;SDS011;40499;47.830;19.026;2022-10-16T14:45:26;7.55;;;3.45;;
52984;SDS011;40499;47.830;19.026;2022-10-16T14:47:55;7.55;;;3.53;;
52984;SDS011;40499;47.830;19.026;2022-10-16T14:50:23;9.30;;;4.28;;
52984;SDS011;40499;47.830;19.026;2022-10-16T14:52:48;10.65;;;4.07;;
52984;SDS011;40499;47.830;19.026;2022-10-16T14:55:14;6.80;;;3.45;;
52984;SDS011;40499;47.830;19.026;2022-10-16T14:57:40;11.85;;;4.53;;
52984;SDS011;40499;47.830;19.026;2022-10-16T15:00:15;11.70;;;4.95;;
52984;SDS011;40499;47.830;19.026;2022-10-16T15:02:43;18.20;;;7.00;;
52984;SDS011;40499;47.830;19.026;2022-10-16T15:05:22;21.95;;;9.57;;
52984;SDS011;40499;47.830;19.026;2022-10-16T15:07:51;16.98;;;7.00;;
52984;SDS011;40499;47.830;19.026;2022-10-16T15:10:18;14.77;;;6.95;;
52984;SDS011;40499;47.830;19.026;2022-10-16T15:12:45;19.35;;;7.93;;
52984;SDS011;40499;47.830;19.026;2022-10-16T15:17:58;24.75;;;8.50;;
52984;SDS011;40499;47.830;19.026;2022-10-16T15:20:36;14.63;;;7.00;;
52984;SDS011;40499;47.830;19.026;2022-10-16T15:23:10;16.13;;;6.45;;
52984;SDS011;40499;47.830;19.026;2022-10-16T15:25:41;16.02;;;6.18;;
52984;SDS011;40499;47.830;19.026;2022-10-16T15:28:08;15.88;;;7.07;;
52984;SDS011;40499;47.830;19.026;2022-10-16T15:30:34;17.17;;;6.72;;
52984;SDS011;40499;47.830;19.026;2022-10-16T15:33:01;22.05;;;8.20;;
52984;SDS011;40499;47.830;19.026;2022-10-16T15:35:27;24.23;;;8.02;;
52984;SDS011;40499;47.830;19.026;2022-10-16T15:37:52;27.67;;;9.30;;
52984;SDS011;40499;47.830;19.026;2022-10-16T15:40:18;24.55;;;9.27;;
52984;SDS011;40499;47.830;19.026;2022-10-16T15:42:44;26.35;;;9.10;;
52984;SDS011;40499;47.830;19.026;2022-10-16T15:45:10;21.80;;;7.93;;
52984;SDS011;40499;47.830;19.026;2022-10-16T15:47:36;15.23;;;6.53;;
52984;SDS011;40499;47.830;19.026;2022-10-16T15:50:02;22.65;;;10.65;;
52984;SDS011;40499;47.830;19.026;2022-10-16T15:52:28;30.90;;;14.52;;
52984;SDS011;40499;47.830;19.026;2022-10-16T15:54:54;36.60;;;15.18;;
52984;SDS011;40499;47.830;19.026;2022-10-16T15:57:20;31.45;;;13.35;;
52984;SDS011;40499;47.830;19.026;2022-10-16T15:59:45;30.13;;;12.40;;
52984;SDS011;40499;47.830;19.026;2022-10-16T16:02:10;21.52;;;10.63;;
52984;SDS011;40499;47.830;19.026;2022-10-16T16:04:36;20.13;;;8.45;;
52984;SDS011;40499;47.830;19.026;2022-10-16T16:07:01;18.63;;;8.15;;
52984;SDS011;40499;47.830;19.026;2022-10-16T16:09:30;10.32;;;5.78;;
52984;SDS011;40499;47.830;19.026;2022-10-16T16:11:55;10.88;;;6.03;;
52984;SDS011;40499;47.830;19.026;2022-10-16T16:14:21;8.85;;;5.10;;
52984;SDS011;40499;47.830;19.026;2022-10-16T16:16:46;7.03;;;4.78;;
52984;SDS011;40499;47.830;19.026;2022-10-16T16:19:12;10.20;;;4.90;;
52984;SDS011;40499;47.830;19.026;2022-10-16T16:21:37;11.05;;;5.25;;
52984;SDS011;40499;47.830;19.026;2022-10-16T16:24:03;9.50;;;6.20;;
52984;SDS011;40499;47.830;19.026;2022-10-16T16:26:33;11.75;;;6.95;;
52984;SDS011;40499;47.830;19.026;2022-10-16T16:29:02;11.40;;;7.38;;
52984;SDS011;40499;47.830;19.026;2022-10-16T16:31:29;9.55;;;6.35;;
52984;SDS011;40499;47.830;19.026;2022-10-16T16:33:56;12.65;;;6.20;;
52984;SDS011;40499;47.830;19.026;2022-10-16T16:36:22;9.85;;;6.05;;
52984;SDS011;40499;47.830;19.026;2022-10-16T16:38:49;9.75;;;5.40;;
52984;SDS011;40499;47.830;19.026;2022-10-16T16:41:21;7.28;;;4.50;;
52984;SDS011;40499;47.830;19.026;2022-10-16T16:43:51;13.85;;;4.93;;
52984;SDS011;40499;47.830;19.026;2022-10-16T16:46:18;9.60;;;4.82;;